Time;durP1;ratioP1;P1;durP2;ratioP2;P2;SDS_P1;SDS_P2;PMS_P1;PMS_P2;Temp;Humidity;BMP_temperature;BMP_pressure;BME280_temperature;BME280_humidity;BME280_pressure;Samples;Min_cycle;Max_cycle;Signal;HPM_P1;HPM_P2
2021/09/08 00:23:50;;;;;;;;;;;;;;;;;;;;;
2021/09/08 00:27:07;;;;;;;;;;;;;;;;;;;;;
2021/09/08 00:34:13;;;;;;;;;;;;;;;;;;;;;
2021/09/08 00:48:11;;;;;;;;;;;;;;;;;;;;;
2021/09/08 01:30:44;;;;;;;;;;;;;;;;;;;;;
2021/09/08 01:55:34;;;;;;;;;;;;;;;;;;;;;
2021/09/08 01:58:51;;;;;;;;;;;;;;;;;;;;;
2021/09/08 02:46:43;;;;;;;15.35;12.48;;;17.60;85.20;;;;;;6014085;23;20057;-92
2021/09/08 02:49:50;;;;;;;;;;;;;;;;;;;;;
2021/09/08 03:59:15;;;;;;;19.45;15.02;;;17.10;86.50;;;;;;6017363;23;20019;-92
2021/09/08 05:06:04;;;;;;;19.38;15.10;;;16.80;87.50;;;;;;6071969;23;20043;-92
2021/09/08 05:16:28;;;;;;;;;;;;;;;;;;;;;
2021/09/08 05:19:47;;;;;;;;;;;;;;;;;;;;;
2021/09/08 06:51:21;;;;;;;;;;;;;;;;;;;;;
2021/09/08 08:28:10;;;;;;;15.10;12.43;;;18.70;88.10;;;;;;6342538;22;20019;-91
2021/09/08 08:55:17;;;;;;;;;;;;;;;;;;;;;
2021/09/08 09:56:19;;;;;;;;;;;;;;;;;;;;;
2021/09/08 09:59:06;;;;;;;;;;;;;;;;;;;;;
2021/09/08 10:35:34;;;;;;;10.73;9.63;;;21.10;84.20;;;;;;6313670;22;20531;-91
2021/09/08 10:38:29;;;;;;;10.02;8.98;;;21.50;83.70;;;;;;5566233;23;15122137;-89
2021/09/08 10:45:26;;;;;;;;;;;;;;;;;;;;;
2021/09/08 10:53:11;;;;;;;;;;;;;;;;;;;;;
2021/09/08 11:00:16;;;;;;;;;;;;;;;;;;;;;
2021/09/08 11:06:46;;;;;;;;;;;;;;;;;;;;;
2021/09/08 11:09:50;;;;;;;;;;;;;;;;;;;;;
2021/09/08 11:13:13;;;;;;;;;;;;;;;;;;;;;
2021/09/08 11:16:20;;;;;;;;;;;;;;;;;;;;;
2021/09/08 11:19:04;;;;;;;9.52;7.50;;;22.50;81.10;;;;;;6174331;23;20088;-92
2021/09/08 11:25:05;;;;;;;8.90;8.00;;;22.50;80.80;;;;;;6209456;23;20062;-92
2021/09/08 11:28:39;;;;;;;;;;;;;;;;;;;;;
2021/09/08 11:31:51;;;;;;;;;;;;;;;;;;;;;
2021/09/08 11:34:57;;;;;;;;;;;;;;;;;;;;;
2021/09/08 11:39:02;;;;;;;;;;;;;;;;;;;;;
2021/09/08 11:44:36;;;;;;;9.00;7.87;;;22.90;79.30;;;;;;6190706;23;20016;-92
2021/09/08 11:48:05;;;;;;;11.60;8.43;;;22.90;78.90;;;;;;6219394;23;20004;-90
2021/09/08 11:51:04;;;;;;;;;;;;;;;;;;;;;
2021/09/08 11:54:11;;;;;;;;;;;;;;;;;;;;;
2021/09/08 12:04:43;;;;;;;;;;;;;;;;;;;;;
2021/09/08 12:11:29;;;;;;;;;;;;;;;;;;;;;
2021/09/08 12:14:23;;;;;;;;;;;;;;;;;;;;;
2021/09/08 12:18:00;;;;;;;7.38;6.57;;;23.60;76.10;;;;;;5975121;23;20060;-91
2021/09/08 12:24:30;;;;;;;9.68;7.10;;;23.60;75.90;;;;;;5959912;23;20023;-90
2021/09/08 12:34:59;;;;;;;;;;;;;;;;;;;;;
2021/09/08 12:37:52;;;;;;;;;;;;;;;;;;;;;
2021/09/08 12:44:11;;;;;;;;;;;;;;;;;;;;;
2021/09/08 12:47:39;;;;;;;;;;;;;;;;;;;;;
2021/09/08 12:51:08;;;;;;;;;;;;;;;;;;;;;
2021/09/08 12:54:31;;;;;;;;;;;;;;;;;;;;;
2021/09/08 12:58:02;;;;;;;;;;;;;;;;;;;;;
2021/09/08 13:01:26;;;;;;;9.77;8.00;;;23.90;73.40;;;;;;6208472;23;20080;-92
2021/09/08 13:46:57;;;;;;;10.40;8.60;;;24.40;72.00;;;;;;6013534;23;20107;-95
2021/09/08 13:49:26;;;;;;;10.52;8.15;;;24.40;70.70;;;;;;6056500;23;20045;-84
2021/09/08 13:51:52;;;;;;;8.10;7.35;;;24.50;70.90;;;;;;6186212;23;19996;-86
2021/09/08 13:54:20;;;;;;;10.15;8.02;;;24.50;71.40;;;;;;6186679;23;20008;-86
2021/09/08 13:56:48;;;;;;;8.13;7.20;;;24.50;71.60;;;;;;6162469;23;20016;-86
2021/09/08 13:59:29;;;;;;;10.55;8.18;;;24.50;71.80;;;;;;6186652;23;20466;-86
2021/09/08 14:02:00;;;;;;;8.93;7.68;;;24.50;70.70;;;;;;6163736;23;20419;-85
2021/09/08 14:04:28;;;;;;;9.68;7.68;;;24.60;70.60;;;;;;6186364;23;20008;-87
2021/09/08 14:06:54;;;;;;;9.68;7.75;;;24.60;70.70;;;;;;6186949;23;20008;-87
2021/09/08 14:09:22;;;;;;;9.88;7.82;;;24.60;70.80;;;;;;6186567;23;20001;-86
2021/09/08 14:12:09;;;;;;;9.63;8.32;;;24.70;70.00;;;;;;6162205;23;20012;-87
2021/09/08 14:14:37;;;;;;;12.18;8.35;;;24.70;69.70;;;;;;6161803;23;20089;-87
2021/09/08 14:17:06;;;;;;;11.65;8.10;;;24.80;68.40;;;;;;6186727;23;20419;-86
2021/09/08 14:19:42;;;;;;;8.18;7.38;;;24.90;68.90;;;;;;6213490;23;20001;-87
2021/09/08 14:22:10;;;;;;;8.43;7.53;;;24.80;69.20;;;;;;6187055;23;20012;-86
2021/09/08 14:24:39;;;;;;;10.23;7.57;;;24.80;69.40;;;;;;6187460;23;20088;-86
2021/09/08 14:27:06;;;;;;;11.80;7.90;;;24.80;69.60;;;;;;6187395;23;20005;-86
2021/09/08 14:29:37;;;;;;;10.00;7.50;;;24.70;69.40;;;;;;6185652;23;20139;-86
2021/09/08 14:32:03;;;;;;;7.88;7.03;;;24.80;69.40;;;;;;6213973;23;19996;-85
2021/09/08 14:34:39;;;;;;;;;;;;;;;;;;;;;
2021/09/08 14:37:10;;;;;;;8.23;7.05;;;24.80;68.50;;;;;;6214215;23;20118;-85
2021/09/08 14:39:36;;;;;;;9.20;7.15;;;24.90;68.60;;;;;;6161394;23;20004;-85
2021/09/08 14:42:04;;;;;;;7.53;6.72;;;24.80;68.30;;;;;;6187104;23;20066;-86
2021/09/08 14:44:33;;;;;;;8.60;7.05;;;24.90;67.90;;;;;;6162477;23;20009;-86
2021/09/08 14:46:59;;;;;;;8.18;7.25;;;24.90;67.00;;;;;;6189236;23;20083;-85
2021/09/08 14:49:25;;;;;;;7.90;7.10;;;25.00;66.00;;;;;;6216405;23;20000;-87
2021/09/08 14:51:53;;;;;;;9.13;7.78;;;25.00;66.40;;;;;;6241886;23;20465;-87
2021/09/08 14:54:25;;;;;;;10.30;8.10;;;25.00;66.90;;;;;;6192115;23;20427;-86
2021/09/08 14:56:57;;;;;;;9.00;7.50;;;25.00;66.70;;;;;;6192785;23;20028;-87
2021/09/08 14:59:25;;;;;;;8.15;7.28;;;25.00;67.00;;;;;;6193494;23;20013;-85
2021/09/08 15:01:52;;;;;;;10.27;7.35;;;25.00;67.10;;;;;;6216789;23;20008;-88
2021/09/08 15:04:21;;;;;;;9.57;7.68;;;25.00;67.20;;;;;;6245183;23;20407;-86
2021/09/08 15:06:50;;;;;;;7.32;6.63;;;25.00;67.10;;;;;;6243359;23;20007;-87
2021/09/08 15:09:19;;;;;;;9.48;7.65;;;25.00;67.30;;;;;;6216503;23;19997;-84
2021/09/08 15:11:55;;;;;;;8.38;7.40;;;25.00;67.50;;;;;;6244268;23;20004;-86
2021/09/08 15:14:24;;;;;;;7.90;7.10;;;24.90;67.60;;;;;;6193189;23;20008;-87
2021/09/08 15:16:50;;;;;;;8.20;7.22;;;24.90;67.90;;;;;;6216153;23;20386;-86
2021/09/08 15:19:22;;;;;;;9.18;7.60;;;24.90;67.90;;;;;;6193980;23;20032;-86
2021/09/08 15:21:51;;;;;;;9.50;7.80;;;24.90;68.00;;;;;;6246073;23;19996;-85
2021/09/08 15:24:20;;;;;;;10.30;7.60;;;24.80;67.40;;;;;;6194411;23;20437;-86
2021/09/08 15:26:56;;;;;;;8.60;7.68;;;24.80;67.40;;;;;;6219773;23;20227;-85
2021/09/08 15:29:30;;;;;;;8.57;7.68;;;24.80;67.60;;;;;;6244437;23;20084;-85
2021/09/08 15:31:56;;;;;;;8.27;7.35;;;24.80;67.70;;;;;;6214477;23;20000;-88
2021/09/08 15:34:22;;;;;;;8.00;7.20;;;24.80;67.90;;;;;;6218973;23;20004;-85
2021/09/08 15:36:57;;;;;;;7.75;6.93;;;24.80;67.50;;;;;;6219398;23;20104;-88
2021/09/08 15:39:25;;;;;;;8.07;7.15;;;24.80;67.50;;;;;;6193465;23;20554;-86
2021/09/08 15:42:09;;;;;;;;;;;;;;;;;;;;;
2021/09/08 15:44:35;;;;;;;11.13;9.55;;;24.70;67.70;;;;;;6242193;23;20014;-86
2021/09/08 15:47:01;;;;;;;9.02;8.13;;;24.70;67.60;;;;;;6216660;23;20028;-86
2021/09/08 15:49:26;;;;;;;10.50;9.25;;;24.70;67.40;;;;;;6217772;23;20011;-85
2021/09/08 15:51:55;;;;;;;12.93;11.63;;;24.80;67.60;;;;;;6191155;23;20007;-85
2021/09/08 15:54:24;;;;;;;11.88;10.15;;;24.70;67.90;;;;;;6191137;23;20012;-86
2021/09/08 15:56:53;;;;;;;10.95;9.75;;;24.80;68.00;;;;;;6216236;23;20007;-88
2021/09/08 15:59:19;;;;;;;11.25;9.73;;;24.80;68.20;;;;;;6217003;23;20000;-86
2021/09/08 16:01:57;;;;;;;10.60;9.25;;;24.70;68.50;;;;;;6218447;23;20007;-86
2021/09/08 16:04:25;;;;;;;10.32;8.88;;;24.80;68.00;;;;;;6218339;23;20087;-85
2021/09/08 16:06:54;;;;;;;9.48;8.07;;;24.80;68.10;;;;;;6219353;23;20036;-85
2021/09/08 16:09:22;;;;;;;8.32;7.53;;;24.70;68.20;;;;;;6218372;23;20007;-85
2021/09/08 16:14:35;;;;;;;9.60;7.70;;;24.70;68.50;;;;;;6245182;23;20036;-85
2021/09/08 16:17:04;;;;;;;11.00;9.55;;;24.70;68.70;;;;;;6218285;23;20004;-86
2021/09/08 16:19:39;;;;;;;11.63;8.80;;;24.70;68.10;;;;;;6240155;23;20012;-86
2021/09/08 16:22:10;;;;;;;11.23;8.13;;;24.70;68.20;;;;;;6193727;23;20004;-87
2021/09/08 16:24:38;;;;;;;8.70;7.88;;;24.70;68.30;;;;;;6218784;23;20008;-85
2021/09/08 16:27:04;;;;;;;17.95;16.20;;;24.70;68.60;;;;;;6243307;23;20488;-83
2021/09/08 16:29:34;;;;;;;14.75;13.20;;;24.60;68.80;;;;;;6193061;23;20091;-84
2021/09/08 16:32:08;;;;;;;13.93;11.50;;;24.60;69.20;;;;;;6193001;23;20418;-87
2021/09/08 16:35:19;;;;;;;;;;;;;;;;;;;;;
2021/09/08 16:37:51;;;;;;;12.43;10.27;;;24.70;69.00;;;;;;6245301;23;20076;-87
2021/09/08 16:40:22;;;;;;;11.45;9.35;;;24.60;69.00;;;;;;6194571;23;20308;-86
2021/09/08 16:42:52;;;;;;;9.77;8.77;;;24.60;68.90;;;;;;6219459;23;20019;-87
2021/09/08 16:45:26;;;;;;;9.35;8.23;;;24.70;68.80;;;;;;6194520;23;20046;-86
2021/09/08 16:47:55;;;;;;;9.80;8.38;;;24.60;68.60;;;;;;6243923;23;20008;-87
2021/09/08 16:50:24;;;;;;;8.43;7.53;;;24.60;68.70;;;;;;6192580;23;20000;-87
2021/09/08 16:52:52;;;;;;;8.02;7.22;;;24.60;69.10;;;;;;6194065;23;20008;-88
2021/09/08 16:55:18;;;;;;;8.23;7.13;;;24.60;69.30;;;;;;6245241;23;20012;-88
2021/09/08 16:57:49;;;;;;;7.75;6.95;;;24.60;69.20;;;;;;6218785;23;20000;-87
2021/09/08 17:00:18;;;;;;;8.10;7.30;;;24.60;69.30;;;;;;6242991;23;19996;-87
2021/09/08 17:02:46;;;;;;;7.43;6.72;;;24.60;69.60;;;;;;6237572;23;20070;-87
2021/09/08 17:05:19;;;;;;;8.88;7.80;;;24.50;69.90;;;;;;6219193;23;20008;-88
2021/09/08 17:07:47;;;;;;;8.68;6.80;;;24.50;70.10;;;;;;6220527;23;20015;-86
2021/09/08 17:10:19;;;;;;;8.05;7.28;;;24.40;70.30;;;;;;6243083;23;20092;-87
2021/09/08 17:12:50;;;;;;;7.90;6.82;;;24.40;70.80;;;;;;6218350;23;20092;-86
2021/09/08 17:15:25;;;;;;;8.27;7.45;;;24.30;70.90;;;;;;6218668;23;20410;-86
2021/09/08 17:18:02;;;;;;;7.65;6.95;;;24.30;70.90;;;;;;6219145;23;20004;-86
2021/09/08 17:20:28;;;;;;;9.20;7.60;;;24.30;71.10;;;;;;6245066;23;20035;-85
2021/09/08 17:58:16;;;;;;;;;;;;;;;;;;;;;
2021/09/08 18:04:57;;;;;;;;;;;;;;;;;;;;;
2021/09/08 18:08:22;;;;;;;;;;;;;;;;;;;;;
2021/09/08 19:08:30;;;;;;;;;;;;;;;;;;;;;
2021/09/08 19:22:06;;;;;;;10.38;8.35;;;22.20;77.90;;;;;;5873600;24;20010;-94
2021/09/08 19:45:43;;;;;;;;;;;;;;;;;;;;;
2021/09/08 20:37:28;;;;;;;11.38;9.18;;;21.20;80.80;;;;;;5757862;24;20014;-93
2021/09/08 20:40:31;;;;;;;;;;;;;;;;;;;;;
2021/09/08 20:43:32;;;;;;;;;;;;;;;;;;;;;
2021/09/08 20:53:51;;;;;;;;;;;;;;;;;;;;;
2021/09/08 21:01:01;;;;;;;;;;;;;;;;;;;;;
2021/09/08 21:04:37;;;;;;;;;;;;;;;;;;;;;
2021/09/08 21:14:24;;;;;;;11.48;10.25;;;20.70;82.20;;;;;;6187787;23;20016;-92
2021/09/08 21:34:42;;;;;;;;;;;;;;;;;;;;;
2021/09/08 21:37:32;;;;;;;15.27;11.80;;;20.50;82.80;;;;;;6164261;23;20331;-90
2021/09/08 21:43:53;;;;;;;;;;;;;;;;;;;;;
2021/09/08 21:49:34;;;;;;;15.13;13.00;;;20.40;83.20;;;;;;6171652;23;20013;-93
2021/09/08 21:52:26;;;;;;;;;;;;;;;;;;;;;
2021/09/08 22:01:52;;;;;;;15.10;13.05;;;20.20;83.70;;;;;;6140300;23;20024;-90
2021/09/08 22:04:51;;;;;;;15.90;12.80;;;20.20;83.90;;;;;;6216022;23;20016;-90
2021/09/08 22:11:27;;;;;;;15.55;12.57;;;20.10;84.10;;;;;;6154677;23;20327;-89
2021/09/08 22:40:42;;;;;;;;;;;;;;;;;;;;;
2021/09/08 22:50:17;;;;;;;15.98;14.07;;;19.70;85.60;;;;;;6139450;23;20084;-89
2021/09/08 22:53:22;;;;;;;17.55;14.43;;;19.70;85.60;;;;;;6183393;23;20021;-90
2021/09/08 22:56:42;;;;;;;;;;;;;;;;;;;;;
2021/09/08 23:03:20;;;;;;;18.87;16.43;;;19.60;85.80;;;;;;6194788;23;20017;-90
2021/09/08 23:06:16;;;;;;;16.58;14.75;;;19.60;86.10;;;;;;6208614;23;20210;-90
2021/09/08 23:12:31;;;;;;;;;;;;;;;;;;;;;
2021/09/08 23:15:46;;;;;;;;;;;;;;;;;;;;;
2021/09/08 23:22:02;;;;;;;;;;;;;;;;;;;;;
2021/09/08 23:25:26;;;;;;;;;;;;;;;;;;;;;
2021/09/08 23:31:51;;;;;;;;;;;;;;;;;;;;;
2021/09/08 23:45:10;;;;;;;;;;;;;;;;;;;;;
2021/09/08 23:48:09;;;;;;;;;;;;;;;;;;;;;
2021/09/08 23:54:44;;;;;;;;;;;;;;;;;;;;;
2021/09/08 23:57:41;;;;;;;;;;;;;;;;;;;;;
